createdAt,value
2022-11-16T00:01:00.897Z,6.02
2022-11-16T00:04:04.503Z,6.06
2022-11-16T00:07:07.380Z,6.02
2022-11-16T00:10:11.292Z,6.02
2022-11-16T00:13:15.405Z,5.91
2022-11-16T00:16:19.160Z,6.08
2022-11-16T00:19:21.903Z,6.13
2022-11-16T00:22:24.544Z,6.16
2022-11-16T00:25:27.187Z,6.09
2022-11-16T00:28:31.819Z,6.12
2022-11-16T00:31:34.750Z,6.16
2022-11-16T00:34:37.473Z,6.09
2022-11-16T00:37:40.243Z,6.09
2022-11-16T00:40:42.902Z,6.12
2022-11-16T00:43:46.957Z,6.12
2022-11-16T00:46:49.631Z,6.23
2022-11-16T00:49:52.390Z,6.33
2022-11-16T00:52:55.092Z,6.26
2022-11-16T00:55:59.081Z,6.09
2022-11-16T00:59:03.249Z,5.98
2022-11-16T01:02:06.034Z,6.05
2022-11-16T01:05:09.555Z,6.11
2022-11-16T01:08:12.236Z,6.15
2022-11-16T01:11:33.030Z,6.06
2022-11-16T01:14:37.423Z,5.93
2022-11-16T01:17:42.178Z,6.04
2022-11-16T01:20:44.819Z,6.05
2022-11-16T01:23:47.611Z,6.12
2022-11-16T01:26:50.334Z,6.17
2022-11-16T01:29:54.935Z,6.24
2022-11-16T01:32:57.657Z,6.28
2022-11-16T01:36:00.416Z,6.19
2022-11-16T01:39:03.300Z,6.22
2022-11-16T01:42:17.875Z,6.24
2022-11-16T01:45:27.003Z,6.21
2022-11-16T01:48:33.147Z,6.19
2022-11-16T01:51:36.369Z,6.27
2022-11-16T01:54:41.958Z,6.44
2022-11-16T01:57:46.663Z,6.50
2022-11-16T02:00:50.850Z,6.53
2022-11-16T02:04:14.990Z,6.43
2022-11-16T02:07:32.150Z,6.42
2022-11-16T02:10:45.080Z,6.43
2022-11-16T02:13:55.624Z,6.44
2022-11-16T02:17:04.188Z,6.35
2022-11-16T02:20:24.384Z,6.26
2022-11-16T02:23:41.746Z,6.27
2022-11-16T02:27:12.244Z,6.24
2022-11-16T02:30:17.234Z,6.27
2022-11-16T02:33:22.570Z,6.30
2022-11-16T02:36:26.101Z,6.32
2022-11-16T02:39:31.795Z,6.33
2022-11-16T02:42:36.869Z,6.32
2022-11-16T02:45:44.423Z,6.44
2022-11-16T02:48:48.925Z,6.48
2022-11-16T02:51:52.011Z,6.52
2022-11-16T02:54:55.873Z,6.41
2022-11-16T02:58:01.295Z,6.40
2022-11-16T03:01:09.750Z,6.36
2022-11-16T03:04:18.299Z,6.28
2022-11-16T03:07:24.718Z,6.27
2022-11-16T03:10:47.604Z,6.25
2022-11-16T03:13:51.040Z,6.26
2022-11-16T03:16:57.086Z,6.25
2022-11-16T03:20:02.380Z,6.07
2022-11-16T03:23:11.469Z,6.22
2022-11-16T03:26:21.273Z,6.13
2022-11-16T03:29:27.341Z,6.21
2022-11-16T03:32:35.602Z,6.18
2022-11-16T03:35:44.187Z,6.20
2022-11-16T03:38:50.699Z,6.17
2022-11-16T03:41:54.322Z,6.16
2022-11-16T03:44:57.046Z,6.20
2022-11-16T03:48:02.694Z,6.01
2022-11-16T03:51:06.263Z,6.06
2022-11-16T03:54:08.933Z,6.04
2022-11-16T03:57:15.664Z,5.95
2022-11-16T04:00:21.228Z,5.98
2022-11-16T04:03:25.251Z,5.89
2022-11-16T04:06:45.503Z,5.93
2022-11-16T04:10:05.552Z,5.98
2022-11-16T04:13:27.024Z,5.97
2022-11-16T04:16:47.413Z,5.97
2022-11-16T04:20:09.024Z,6.02
2022-11-16T04:23:31.892Z,6.01
2022-11-16T04:26:52.804Z,5.92
2022-11-16T04:29:56.042Z,5.93
2022-11-16T04:33:16.260Z,5.95
2022-11-16T04:36:38.110Z,5.93
2022-11-16T04:39:41.217Z,5.70
2022-11-16T04:42:44.722Z,5.85
2022-11-16T04:46:04.723Z,5.87
2022-11-16T04:49:15.129Z,5.93
2022-11-16T04:52:19.991Z,5.86
2022-11-16T04:55:23.597Z,5.95
2022-11-16T04:58:27.149Z,5.89
2022-11-16T05:01:44.124Z,5.74
2022-11-16T05:04:46.957Z,5.79
2022-11-16T05:07:51.351Z,5.74
2022-11-16T05:11:00.113Z,5.78
2022-11-16T05:14:03.540Z,5.78
2022-11-16T05:17:06.453Z,5.84
2022-11-16T05:20:24.769Z,5.95
2022-11-16T05:23:51.741Z,5.99
2022-11-16T05:26:57.533Z,5.87
2022-11-16T05:30:00.217Z,5.94
2022-11-16T05:33:02.960Z,5.94
2022-11-16T05:36:09.723Z,5.85
2022-11-16T05:39:13.932Z,5.90
2022-11-16T05:42:17.531Z,5.87
2022-11-16T05:45:21.311Z,5.81
2022-11-16T05:48:25.037Z,5.86
2022-11-16T05:51:27.778Z,5.86
2022-11-16T05:54:33.324Z,5.83
2022-11-16T05:57:36.504Z,5.80
2022-11-16T06:00:39.292Z,5.81
2022-11-16T06:03:44.223Z,5.85
2022-11-16T06:06:47.315Z,5.75
2022-11-16T06:09:51.726Z,5.81
2022-11-16T06:12:57.162Z,5.90
2022-11-16T06:16:00.454Z,5.88
2022-11-16T06:19:04.490Z,5.88
2022-11-16T06:22:07.185Z,5.79
2022-11-16T06:25:11.891Z,5.77
2022-11-16T06:28:18.153Z,5.87
2022-11-16T06:31:21.237Z,5.86
2022-11-16T06:34:24.710Z,5.82
2022-11-16T06:37:27.691Z,5.84
2022-11-16T06:40:34.071Z,5.66
2022-11-16T06:43:38.739Z,5.75
2022-11-16T06:46:41.797Z,5.73
2022-11-16T06:49:44.544Z,5.76
2022-11-16T06:52:55.099Z,5.81
2022-11-16T06:56:03.240Z,5.74
2022-11-16T06:59:07.055Z,5.73
2022-11-16T07:02:10.829Z,5.74
2022-11-16T07:05:14.641Z,5.69
2022-11-16T07:08:18.616Z,5.61
2022-11-16T07:11:22.810Z,5.50
2022-11-16T07:14:25.670Z,5.69
2022-11-16T07:17:28.390Z,5.65
2022-11-16T07:20:31.240Z,5.48
2022-11-16T07:23:34.216Z,5.58
2022-11-16T07:26:38.486Z,5.54
2022-11-16T07:29:49.095Z,5.61
2022-11-16T07:33:17.868Z,5.69
2022-11-16T07:36:39.479Z,5.68
2022-11-16T07:39:43.628Z,5.70
2022-11-16T07:42:47.692Z,5.65
2022-11-16T07:45:52.444Z,5.69
2022-11-16T07:48:55.548Z,5.70
2022-11-16T07:52:17.607Z,5.70
2022-11-16T07:55:31.953Z,5.74
2022-11-16T07:58:37.237Z,5.78
2022-11-16T08:01:40.739Z,5.77
2022-11-16T08:04:46.956Z,5.76
2022-11-16T08:07:49.934Z,5.79
2022-11-16T08:10:59.457Z,5.84
2022-11-16T08:14:03.585Z,5.87
2022-11-16T08:17:08.362Z,5.91
2022-11-16T08:20:12.498Z,5.99
2022-11-16T08:23:16.487Z,6.03
2022-11-16T08:26:22.012Z,6.05
2022-11-16T08:29:36.126Z,6.07
2022-11-16T08:32:42.503Z,6.10
2022-11-16T08:35:48.115Z,6.12
2022-11-16T08:38:51.744Z,6.11
2022-11-16T08:41:56.038Z,6.16
2022-11-16T08:45:00.163Z,6.13
2022-11-16T08:48:04.456Z,6.17
2022-11-16T08:51:19.675Z,6.22
2022-11-16T08:54:29.367Z,6.25
2022-11-16T08:57:32.549Z,6.32
2022-11-16T09:00:40.884Z,6.36
2022-11-16T09:03:43.803Z,6.42
2022-11-16T09:06:46.924Z,6.49
2022-11-16T09:09:49.613Z,6.53
2022-11-16T09:12:52.234Z,6.60
2022-11-16T09:15:59.609Z,6.64
2022-11-16T09:19:02.310Z,6.68
2022-11-16T09:22:05.181Z,6.70
2022-11-16T09:25:09.393Z,6.75
2022-11-16T09:28:12.516Z,6.77
2022-11-16T09:31:20.382Z,6.82
2022-11-16T09:34:25.921Z,6.87
2022-11-16T09:37:28.679Z,6.95
2022-11-16T09:40:32.521Z,7.01
2022-11-16T09:43:45.309Z,7.05
2022-11-16T09:46:54.306Z,7.09
2022-11-16T09:50:04.027Z,7.16
2022-11-16T09:53:14.983Z,7.20
2022-11-16T09:56:22.589Z,7.22
2022-11-16T09:59:26.395Z,7.23
2022-11-16T10:02:33.418Z,7.28
2022-11-16T10:05:39.430Z,7.29
2022-11-16T10:08:44.184Z,7.33
2022-11-16T10:11:55.296Z,7.33
2022-11-16T10:15:12.984Z,7.38
2022-11-16T10:18:26.133Z,7.39
2022-11-16T10:21:37.285Z,7.43
2022-11-16T10:24:46.973Z,7.47
2022-11-16T10:28:05.479Z,7.50
2022-11-16T10:31:14.728Z,7.53
2022-11-16T10:34:21.333Z,7.46
2022-11-16T10:37:29.333Z,7.41
2022-11-16T10:40:37.291Z,7.29
2022-11-16T10:43:41.407Z,7.25
2022-11-16T10:46:47.839Z,7.17
2022-11-16T10:50:06.398Z,7.16
2022-11-16T10:53:13.004Z,7.07
2022-11-16T10:56:18.547Z,7.03
2022-11-16T10:59:21.226Z,7.00
2022-11-16T11:02:29.176Z,6.93
2022-11-16T11:05:32.075Z,7.00
2022-11-16T11:08:36.075Z,7.03
2022-11-16T11:11:56.362Z,7.16
2022-11-16T11:15:00.936Z,7.14
2022-11-16T11:18:14.687Z,7.23
2022-11-16T11:21:20.164Z,7.21
2022-11-16T11:27:47.007Z,7.30
2022-11-16T11:30:58.489Z,7.25
2022-11-16T11:34:05.926Z,7.27
2022-11-16T11:37:14.319Z,7.23
2022-11-16T11:40:23.135Z,7.29
2022-11-16T11:43:26.225Z,7.14
2022-11-16T11:47:06.403Z,7.12
2022-11-16T11:49:56.628Z,7.14
2022-11-16T11:53:03.201Z,7.15
2022-11-16T11:56:08.073Z,7.07
2022-11-16T11:59:14.060Z,7.07
2022-11-16T12:02:25.651Z,7.14
2022-11-16T12:05:35.024Z,7.21
2022-11-16T12:08:56.212Z,7.37
2022-11-16T12:12:11.809Z,7.31
2022-11-16T12:15:27.623Z,7.30
2022-11-16T12:18:38.645Z,7.27
2022-11-16T12:21:45.873Z,7.29
2022-11-16T12:24:56.764Z,7.35
2022-11-16T12:28:11.932Z,7.49
2022-11-16T12:31:32.573Z,7.60
2022-11-16T12:34:43.260Z,7.48
2022-11-16T12:37:50.699Z,7.52
2022-11-16T12:41:00.004Z,7.42
2022-11-16T12:44:06.504Z,7.44
2022-11-16T12:47:18.233Z,7.47
2022-11-16T12:50:31.085Z,7.52
2022-11-16T12:53:42.810Z,7.44
2022-11-16T12:56:50.975Z,7.58
2022-11-16T13:00:02.657Z,7.59
2022-11-16T13:03:12.446Z,7.65
2022-11-16T13:06:17.733Z,7.59
2022-11-16T13:09:22.719Z,7.66
2022-11-16T13:12:26.600Z,7.60
2022-11-16T13:15:34.599Z,7.69
2022-11-16T13:18:40.147Z,7.77
2022-11-16T13:21:47.529Z,7.73
2022-11-16T13:24:53.017Z,7.77
2022-11-16T13:27:57.119Z,7.63
2022-11-16T13:31:03.415Z,7.68
2022-11-16T13:34:08.208Z,7.84
2022-11-16T13:37:29.289Z,7.77
2022-11-16T13:40:32.287Z,7.90
2022-11-16T13:43:34.953Z,7.88
2022-11-16T13:46:55.137Z,7.77
2022-11-16T13:49:59.796Z,7.77
2022-11-16T13:54:10.894Z,7.86
2022-11-16T13:56:29.339Z,7.92
2022-11-16T13:59:34.676Z,7.95
2022-11-16T14:02:40.217Z,7.93
2022-11-16T14:05:43.631Z,7.92
2022-11-16T14:08:48.013Z,7.73
2022-11-16T14:11:50.792Z,7.82
2022-11-16T14:15:04.322Z,7.87
2022-11-16T14:18:25.175Z,7.93
2022-11-16T14:21:38.514Z,7.89
2022-11-16T14:24:44.668Z,7.89
2022-11-16T14:27:53.852Z,7.80
2022-11-16T14:30:59.850Z,7.79
2022-11-16T14:34:02.746Z,7.86
2022-11-16T14:37:07.014Z,7.98
2022-11-16T14:40:15.014Z,7.91
2022-11-16T14:43:20.660Z,7.75
2022-11-16T14:46:24.256Z,7.79
2022-11-16T14:49:28.035Z,7.81
2022-11-16T14:52:36.535Z,7.76
2022-11-16T14:55:42.660Z,7.70
2022-11-16T14:58:51.819Z,7.71
2022-11-16T15:01:54.678Z,7.64
2022-11-16T15:04:57.576Z,7.62
2022-11-16T15:08:02.468Z,7.57
2022-11-16T15:11:06.507Z,7.53
2022-11-16T15:14:10.129Z,7.57
2022-11-16T15:17:16.094Z,7.59
2022-11-16T15:20:20.386Z,7.53
2022-11-16T15:23:29.385Z,7.59
2022-11-16T15:26:33.528Z,7.57
2022-11-16T15:29:36.657Z,7.66
2022-11-16T15:32:41.401Z,7.64
2022-11-16T15:35:44.306Z,7.65
2022-11-16T15:38:48.832Z,7.63
2022-11-16T15:41:52.478Z,7.68
2022-11-16T15:44:55.531Z,7.66
2022-11-16T15:48:00.496Z,7.69
2022-11-16T15:51:07.341Z,7.68
2022-11-16T15:54:15.734Z,7.68
2022-11-16T15:57:19.349Z,7.47
2022-11-16T16:00:23.276Z,7.65
2022-11-16T16:03:27.551Z,7.74
2022-11-16T16:06:43.965Z,7.73
2022-11-16T16:09:48.025Z,7.69
2022-11-16T16:12:51.762Z,7.68
2022-11-16T16:16:09.358Z,7.68
2022-11-16T16:19:28.463Z,7.69
2022-11-16T16:22:32.976Z,7.55
2022-11-16T16:25:37.601Z,7.57
2022-11-16T16:28:40.317Z,7.63
2022-11-16T16:31:44.271Z,7.53
2022-11-16T16:34:47.301Z,7.57
2022-11-16T16:37:50.814Z,7.50
2022-11-16T16:41:00.265Z,7.57
2022-11-16T16:44:02.986Z,7.54
2022-11-16T16:47:05.814Z,7.48
2022-11-16T16:50:08.739Z,7.53
2022-11-16T16:53:12.343Z,7.52
2022-11-16T16:56:19.764Z,7.44
2022-11-16T16:59:22.560Z,7.34
2022-11-16T17:02:25.532Z,7.40
2022-11-16T17:05:28.223Z,7.46
2022-11-16T17:08:34.055Z,7.48
2022-11-16T17:11:38.051Z,7.49
2022-11-16T17:14:40.818Z,7.48
2022-11-16T17:17:43.965Z,7.45
2022-11-16T17:20:46.645Z,7.43
2022-11-16T17:23:49.437Z,7.46
2022-11-16T17:26:53.502Z,7.49
2022-11-16T17:29:56.234Z,7.47
2022-11-16T17:32:58.949Z,7.42
2022-11-16T17:36:03.735Z,7.42
2022-11-16T17:39:06.533Z,7.47
2022-11-16T17:42:10.655Z,7.45
2022-11-16T17:45:13.316Z,7.41
2022-11-16T17:48:16.460Z,7.42
2022-11-16T17:51:20.364Z,7.39
2022-11-16T17:54:23.149Z,7.40
2022-11-16T17:57:27.159Z,7.32
2022-11-16T18:00:29.965Z,7.34
2022-11-16T18:03:32.890Z,7.32
2022-11-16T18:06:35.941Z,7.32
2022-11-16T18:09:38.628Z,7.32
2022-11-16T18:12:42.819Z,7.34
2022-11-16T18:15:45.624Z,7.30
2022-11-16T18:18:49.224Z,7.34
2022-11-16T18:21:52.040Z,7.27
2022-11-16T18:24:54.820Z,7.30
2022-11-16T18:28:06.206Z,7.32
2022-11-16T18:31:11.484Z,7.32
2022-11-16T18:34:15.026Z,7.38
2022-11-16T18:37:20.784Z,7.29
2022-11-16T18:40:23.866Z,7.34
2022-11-16T18:43:28.241Z,7.30
2022-11-16T18:46:31.789Z,7.31
2022-11-16T18:49:34.522Z,7.38
2022-11-16T18:52:38.042Z,7.36
2022-11-16T18:55:40.811Z,7.39
2022-11-16T18:58:53.140Z,7.42
2022-11-16T19:01:57.067Z,7.29
2022-11-16T19:04:59.802Z,7.30
2022-11-16T19:08:02.749Z,7.22
2022-11-16T19:11:07.711Z,7.28
2022-11-16T19:14:11.992Z,7.21
2022-11-16T19:17:14.989Z,7.15
2022-11-16T19:20:19.745Z,7.14
2022-11-16T19:23:22.538Z,7.11
2022-11-16T19:26:26.633Z,7.03
2022-11-16T19:29:30.997Z,7.07
2022-11-16T19:32:33.721Z,7.02
2022-11-16T19:35:39.732Z,7.02
2022-11-16T19:38:42.825Z,6.97
2022-11-16T19:41:45.528Z,6.92
2022-11-16T19:44:49.874Z,6.80
2022-11-16T19:47:52.573Z,6.72
2022-11-16T19:50:55.390Z,6.64
2022-11-16T19:53:59.320Z,6.58
2022-11-16T19:57:02.220Z,6.67
2022-11-16T20:00:07.626Z,6.75
2022-11-16T20:03:10.470Z,6.73
2022-11-16T20:06:14.866Z,6.71
2022-11-16T20:09:17.724Z,6.57
2022-11-16T20:12:20.883Z,6.56
2022-11-16T20:15:26.003Z,6.67
2022-11-16T20:18:30.204Z,6.68
2022-11-16T20:21:35.093Z,6.81
2022-11-16T20:24:37.852Z,6.78
2022-11-16T20:27:40.680Z,6.73
2022-11-16T20:30:47.795Z,6.55
2022-11-16T20:33:51.398Z,6.58
2022-11-16T20:36:56.442Z,6.61
2022-11-16T20:39:59.228Z,6.68
2022-11-16T20:43:02.810Z,6.70
2022-11-16T20:46:07.444Z,6.75
2022-11-16T20:49:10.168Z,6.70
2022-11-16T20:52:17.872Z,6.72
2022-11-16T20:55:21.070Z,6.64
2022-11-16T20:58:26.112Z,6.67
2022-11-16T21:01:31.861Z,6.72
2022-11-16T21:04:35.034Z,6.75
2022-11-16T21:07:38.300Z,6.74
2022-11-16T21:10:41.189Z,6.79
2022-11-16T21:14:03.088Z,6.74
2022-11-16T21:17:08.132Z,6.75
2022-11-16T21:20:26.806Z,6.75
2022-11-16T21:23:31.845Z,6.80
2022-11-16T21:26:35.466Z,6.72
2022-11-16T21:29:38.362Z,6.73
2022-11-16T21:32:42.488Z,6.73
2022-11-16T21:35:45.506Z,6.83
2022-11-16T21:38:48.850Z,6.74
2022-11-16T21:41:51.687Z,6.74
2022-11-16T21:44:54.382Z,6.68
2022-11-16T21:47:59.952Z,6.74
2022-11-16T21:51:03.804Z,6.75
2022-11-16T21:54:06.708Z,6.78
2022-11-16T21:57:09.674Z,6.70
2022-11-16T22:00:13.081Z,6.73
2022-11-16T22:03:17.223Z,6.81
2022-11-16T22:06:37.178Z,6.83
2022-11-16T22:09:39.879Z,6.84
2022-11-16T22:12:42.691Z,6.89
2022-11-16T22:15:45.537Z,6.93
2022-11-16T22:18:50.095Z,6.90
2022-11-16T22:21:52.795Z,6.87
2022-11-16T22:24:55.868Z,6.90
2022-11-16T22:28:19.643Z,6.91
2022-11-16T22:31:21.548Z,6.87
2022-11-16T22:34:25.913Z,6.88
2022-11-16T22:37:28.677Z,6.87
2022-11-16T22:40:31.589Z,6.80
2022-11-16T22:43:35.955Z,6.76
2022-11-16T22:46:39.029Z,6.70
2022-11-16T22:49:43.225Z,6.68
2022-11-16T22:52:46.005Z,6.70
2022-11-16T22:55:49.006Z,6.72
2022-11-16T22:58:51.806Z,6.65
2022-11-16T23:01:54.497Z,6.65
2022-11-16T23:04:58.717Z,6.44
2022-11-16T23:08:01.462Z,6.59
2022-11-16T23:11:22.701Z,6.50
2022-11-16T23:14:43.020Z,6.52
2022-11-16T23:17:46.319Z,6.51
2022-11-16T23:21:08.069Z,6.60
2022-11-16T23:24:28.684Z,6.52
2022-11-16T23:27:38.228Z,6.26
2022-11-16T23:30:43.127Z,6.35
2022-11-16T23:33:45.845Z,6.44
2022-11-16T23:36:49.898Z,6.35
2022-11-16T23:39:52.606Z,6.26
2022-11-16T23:43:13.572Z,6.11
2022-11-16T23:46:16.325Z,5.98
2022-11-16T23:49:19.026Z,5.99
2022-11-16T23:52:23.150Z,5.97
2022-11-16T23:55:26.674Z,6.10
2022-11-16T23:58:29.388Z,6.07
